Time;durP1;ratioP1;P1;durP2;ratioP2;P2;SDS_P1;SDS_P2;PMS_P1;PMS_P2;Temp;Humidity;BMP_temperature;BMP_pressure;BME280_temperature;BME280_humidity;BME280_pressure;Samples;Min_cycle;Max_cycle;Signal;HPM_P1;HPM_P2
2023/07/03 00:00:17;;;;;;;11.35;2.83;;;;;;;16.76;56.41;100844.16;5066730;28;20110;-77
2023/07/03 00:02:52;;;;;;;10.93;3.35;;;;;;;16.76;56.36;100845.00;5066981;28;20045;-79
2023/07/03 00:05:21;;;;;;;13.57;3.13;;;;;;;16.74;56.59;100835.38;5070386;28;20045;-79
2023/07/03 00:07:49;;;;;;;12.70;3.65;;;;;;;16.71;56.59;100840.88;5066892;28;20849;-78
2023/07/03 00:10:16;;;;;;;10.25;3.30;;;;;;;16.70;56.89;100839.16;5068136;28;20406;-79
2023/07/03 00:12:44;;;;;;;7.20;3.15;;;;;;;16.70;57.04;100837.38;5064800;28;20084;-76
2023/07/03 00:15:11;;;;;;;13.43;3.88;;;;;;;16.68;56.90;100838.41;5065214;28;20090;-75
2023/07/03 00:17:39;;;;;;;11.40;3.28;;;;;;;16.66;57.07;100841.13;5066492;28;20040;-77
2023/07/03 00:20:11;;;;;;;9.35;3.17;;;;;;;16.62;57.12;100831.63;5066868;28;20120;-75
2023/07/03 00:22:38;;;;;;;12.63;3.70;;;;;;;16.56;57.40;100827.50;5063761;28;20045;-76
2023/07/03 00:25:06;;;;;;;12.63;3.50;;;;;;;16.54;57.26;100834.72;5067241;28;20464;-76
2023/07/03 00:27:33;;;;;;;13.23;3.58;;;;;;;16.49;57.26;100830.56;5066665;28;20051;-76
2023/07/03 00:30:02;;;;;;;16.67;4.10;;;;;;;16.45;57.44;100833.41;5064606;28;20549;-76
2023/07/03 00:32:29;;;;;;;14.05;3.45;;;;;;;16.40;57.54;100834.59;5068011;28;20072;-76
2023/07/03 00:34:57;;;;;;;12.05;3.53;;;;;;;16.36;57.76;100831.25;5065489;28;20755;-76
2023/07/03 00:37:24;;;;;;;13.23;3.50;;;;;;;16.35;57.74;100832.19;5063300;28;20076;-75
2023/07/03 00:39:52;;;;;;;11.10;3.50;;;;;;;16.30;58.12;100837.75;5064791;28;20139;-74
2023/07/03 00:42:24;;;;;;;13.27;3.70;;;;;;;16.25;58.03;100834.50;5065204;28;20099;-74
2023/07/03 00:44:52;;;;;;;11.93;3.75;;;;;;;16.23;58.29;100833.72;5050223;28;20739;-74
2023/07/03 00:47:21;;;;;;;10.95;3.30;;;;;;;16.22;58.25;100826.69;5062970;28;20075;-75
2023/07/03 00:49:48;;;;;;;12.00;3.17;;;;;;;16.24;58.29;100831.91;5065350;28;20057;-74
2023/07/03 00:52:17;;;;;;;12.98;3.33;;;;;;;16.20;58.22;100831.22;5065742;28;20041;-75
2023/07/03 00:54:44;;;;;;;11.75;3.28;;;;;;;16.17;58.73;100822.56;5066848;28;20073;-75
2023/07/03 00:57:14;;;;;;;12.77;3.53;;;;;;;16.17;58.30;100822.56;5066797;28;20040;-75
2023/07/03 00:59:42;;;;;;;11.23;3.25;;;;;;;16.15;58.45;100833.28;5065176;28;20041;-75
2023/07/03 01:02:19;;;;;;;14.35;3.47;;;;;;;16.09;58.51;100823.84;5062413;28;20041;-75
2023/07/03 01:04:57;;;;;;;14.50;3.58;;;;;;;16.05;58.92;100832.91;5057659;28;20080;-76
2023/07/03 01:07:31;;;;;;;10.57;3.10;;;;;;;16.03;59.26;100834.78;5061632;28;20037;-75
2023/07/03 01:10:15;;;;;;;10.43;3.28;;;;;;;16.02;59.07;100829.56;5064040;28;20041;-76
2023/07/03 01:12:47;;;;;;;15.37;3.87;;;;;;;15.98;59.24;100831.53;5062077;28;20126;-75
2023/07/03 01:15:23;;;;;;;10.40;3.40;;;;;;;15.97;59.51;100829.81;5064574;28;20144;-75
2023/07/03 01:17:54;;;;;;;14.60;3.92;;;;;;;15.96;59.49;100823.66;5059257;28;20051;-75
2023/07/03 01:20:26;;;;;;;8.70;3.03;;;;;;;15.93;59.54;100815.81;5064549;28;20056;-77
2023/07/03 01:23:27;;;;;;;11.18;3.55;;;;;;;15.93;59.61;100815.81;5066685;28;20124;-77
2023/07/03 01:25:57;;;;;;;14.20;3.60;;;;;;;15.92;59.76;100827.38;5063335;28;20349;-77
2023/07/03 01:28:27;;;;;;;12.52;3.22;;;;;;;15.91;59.96;100816.84;5065836;28;20535;-77
2023/07/03 01:30:57;;;;;;;9.15;3.35;;;;;;;15.89;60.20;100814.25;5063832;28;20045;-77
2023/07/03 01:33:33;;;;;;;12.60;3.33;;;;;;;15.90;60.31;100817.78;5061972;28;20052;-77
2023/07/03 01:36:03;;;;;;;13.43;3.35;;;;;;;15.91;60.20;100819.50;5065751;28;20037;-77
2023/07/03 01:38:32;;;;;;;11.60;3.33;;;;;;;15.93;60.48;100820.25;5067213;28;20045;-77
2023/07/03 01:41:00;;;;;;;16.65;3.72;;;;;;;15.94;60.56;100812.22;5062600;28;20049;-79
2023/07/03 01:43:28;;;;;;;18.08;4.20;;;;;;;15.93;60.67;100818.47;5069452;28;20386;-78
2023/07/03 01:45:55;;;;;;;14.23;3.72;;;;;;;15.90;60.78;100826.59;5066002;28;20033;-77
2023/07/03 01:48:22;;;;;;;12.85;3.15;;;;;;;15.88;60.84;100823.16;5067233;28;20095;-77
2023/07/03 01:50:50;;;;;;;14.75;3.60;;;;;;;15.92;60.68;100832.72;5066439;28;20069;-76
2023/07/03 01:53:28;;;;;;;16.23;3.50;;;;;;;15.91;60.70;100819.50;5060699;28;20506;-76
2023/07/03 01:56:11;;;;;;;15.57;3.35;;;;;;;15.90;60.99;100813.31;5060227;28;20165;-76
2023/07/03 01:58:54;;;;;;;12.68;3.10;;;;;;;15.86;60.98;100824.19;5053847;28;20045;-75
2023/07/03 02:01:41;;;;;;;15.05;3.35;;;;;;;15.87;61.11;100817.94;5061121;28;20045;-76
2023/07/03 02:04:27;;;;;;;12.13;3.80;;;;;;;15.87;61.35;100816.16;5059671;28;20098;-78
2023/07/03 02:06:57;;;;;;;12.98;3.38;;;;;;;15.83;61.38;100818.06;5055917;28;20043;-77
2023/07/03 02:09:25;;;;;;;19.02;4.20;;;;;;;15.86;61.58;100805.59;5067259;28;20583;-76
2023/07/03 02:11:55;;;;;;;13.60;4.00;;;;;;;15.82;61.76;100808.38;5066015;28;20049;-77
2023/07/03 02:14:24;;;;;;;15.13;3.70;;;;;;;15.82;61.78;100816.34;5067419;28;20111;-80
2023/07/03 02:16:52;;;;;;;16.83;3.75;;;;;;;15.82;62.10;100813.69;5070521;28;20033;-80
2023/07/03 02:19:28;;;;;;;16.08;3.90;;;;;;;15.81;62.20;100819.97;5069744;28;20057;-77
2023/07/03 02:21:56;;;;;;;15.60;3.75;;;;;;;15.81;62.30;100816.44;5069950;28;20131;-78
2023/07/03 02:24:24;;;;;;;14.75;3.53;;;;;;;15.81;62.60;100803.16;5070827;28;20152;-78
2023/07/03 02:26:53;;;;;;;17.13;3.95;;;;;;;15.80;62.53;100810.28;5070115;28;20041;-78
2023/07/03 02:29:20;;;;;;;20.17;4.07;;;;;;;15.80;62.67;100809.41;5063901;28;20136;-76
2023/07/03 02:31:47;;;;;;;18.92;3.88;;;;;;;15.77;62.77;100805.09;5067873;28;20045;-75
2023/07/03 02:34:15;;;;;;;22.85;4.55;;;;;;;15.77;63.05;100805.09;5057127;28;20544;-75
2023/07/03 02:36:46;;;;;;;19.38;3.97;;;;;;;15.74;63.12;100802.59;5066222;28;20083;-77
2023/07/03 02:39:13;;;;;;;18.08;3.72;;;;;;;15.74;63.53;100805.25;5068017;28;20110;-76
2023/07/03 02:41:40;;;;;;;16.85;3.83;;;;;;;15.74;63.67;100804.41;5062453;28;20517;-76
2023/07/03 02:44:07;;;;;;;17.65;3.75;;;;;;;15.69;63.97;100802.84;5067406;28;20033;-77
2023/07/03 02:46:35;;;;;;;16.85;3.83;;;;;;;15.68;64.07;100805.59;5066185;28;20428;-75
2023/07/03 02:49:03;;;;;;;19.13;4.22;;;;;;;15.64;64.32;100802.25;5067250;28;20072;-76
2023/07/03 02:51:30;;;;;;;15.85;4.15;;;;;;;15.64;64.82;100793.41;5066428;28;20721;-77
2023/07/03 02:54:04;;;;;;;28.00;4.28;;;;;;;15.62;64.58;100793.50;5064871;28;20072;-76
2023/07/03 02:56:32;;;;;;;15.63;4.07;;;;;;;15.61;65.28;100799.72;5065859;28;20124;-77
2023/07/03 02:58:59;;;;;;;18.27;4.15;;;;;;;15.60;64.96;100794.50;5083517;28;20056;-76
2023/07/03 03:01:31;;;;;;;17.70;4.25;;;;;;;15.64;65.40;100790.75;5062104;28;20100;-79
2023/07/03 03:03:58;;;;;;;17.50;3.92;;;;;;;15.61;65.12;100782.94;5068979;28;20056;-78
2023/07/03 03:06:26;;;;;;;18.98;4.20;;;;;;;15.61;65.38;100783.78;5067512;28;20045;-78
2023/07/03 03:08:53;;;;;;;20.63;5.05;;;;;;;15.61;65.85;100780.28;5067021;28;20045;-79
2023/07/03 03:11:20;;;;;;;20.90;5.10;;;;;;;15.57;66.61;100781.38;5061878;28;20037;-78
2023/07/03 03:13:51;;;;;;;18.85;4.53;;;;;;;15.55;67.02;100780.59;5068306;28;20571;-77
2023/07/03 03:16:18;;;;;;;21.45;5.00;;;;;;;15.50;66.86;100778.19;5083463;28;20037;-77
2023/07/03 03:18:47;;;;;;;24.65;4.72;;;;;;;15.44;66.80;100776.69;5067502;28;20045;-77
2023/07/03 03:21:15;;;;;;;19.13;4.55;;;;;;;15.41;67.60;100774.22;5067452;28;20480;-77
2023/07/03 03:23:45;;;;;;;23.05;4.88;;;;;;;15.37;67.77;100770.84;5065681;28;20045;-75
2023/07/03 03:26:13;;;;;;;21.52;5.35;;;;;;;15.38;67.90;100779.69;5083680;28;20512;-74
2023/07/03 03:28:40;;;;;;;19.80;4.65;;;;;;;15.35;68.52;100774.53;5068845;28;20488;-74
2023/07/03 03:31:08;;;;;;;19.40;4.90;;;;;;;15.34;68.52;100775.44;5065043;28;20107;-74
2023/07/03 03:33:41;;;;;;;17.75;4.55;;;;;;;15.32;68.80;100775.53;5064838;28;20045;-73
2023/07/03 03:36:08;;;;;;;17.38;4.75;;;;;;;15.31;69.08;100781.78;5066401;28;20129;-73
2023/07/03 03:38:35;;;;;;;24.30;5.07;;;;;;;15.31;69.33;100775.63;5066769;28;20099;-73
2023/07/03 03:41:04;;;;;;;22.35;4.97;;;;;;;15.29;69.71;100780.16;5063450;28;20037;-74
2023/07/03 03:43:36;;;;;;;20.98;4.97;;;;;;;15.27;69.84;100777.56;5057938;28;20135;-74
2023/07/03 03:46:04;;;;;;;20.75;4.80;;;;;;;15.24;69.94;100779.50;5063797;28;20037;-74
2023/07/03 03:48:35;;;;;;;23.02;4.90;;;;;;;15.20;70.21;100785.00;5066303;28;20487;-75
2023/07/03 03:51:03;;;;;;;21.88;5.35;;;;;;;15.14;70.33;100785.28;5066005;28;20044;-74
2023/07/03 03:53:32;;;;;;;21.73;5.28;;;;;;;15.13;70.77;100790.69;5066163;28;20047;-74
2023/07/03 03:55:59;;;;;;;25.75;5.50;;;;;;;15.11;71.01;100788.09;5067107;28;20124;-74
2023/07/03 03:58:29;;;;;;;22.70;5.45;;;;;;;15.09;70.80;100791.78;5065500;28;20132;-75
2023/07/03 04:00:56;;;;;;;21.35;4.40;;;;;;;15.08;70.73;100785.63;5059328;28;20037;-75
2023/07/03 04:03:23;;;;;;;22.33;4.78;;;;;;;15.09;71.34;100792.66;5066816;28;20037;-75
2023/07/03 04:05:50;;;;;;;21.92;5.15;;;;;;;15.16;71.47;100795.84;5059841;28;20045;-76
2023/07/03 04:08:18;;;;;;;23.40;4.63;;;;;;;15.21;71.28;100783.19;5066382;28;20513;-75
2023/07/03 04:10:45;;;;;;;20.23;5.03;;;;;;;15.26;71.26;100793.56;5066057;28;20132;-76
2023/07/03 04:13:12;;;;;;;23.10;5.30;;;;;;;15.29;71.62;100790.78;5068531;28;20095;-77
2023/07/03 04:15:54;;;;;;;19.58;5.13;;;;;;;15.34;71.66;100789.59;5066968;28;20901;-79
2023/07/03 04:18:23;;;;;;;24.27;4.50;;;;;;;15.37;71.72;100791.25;5053353;28;20983;-78
2023/07/03 04:20:50;;;;;;;25.73;5.70;;;;;;;15.38;70.97;100793.81;5068354;28;20139;-78
2023/07/03 04:23:18;;;;;;;19.08;4.60;;;;;;;15.41;71.71;100792.81;5069597;28;20037;-76
2023/07/03 04:25:45;;;;;;;25.27;5.15;;;;;;;15.44;71.24;100789.97;5056524;28;20046;-77
2023/07/03 04:28:13;;;;;;;36.67;6.30;;;;;;;15.49;71.11;100787.97;5067420;28;20479;-77
2023/07/03 04:30:40;;;;;;;24.02;5.18;;;;;;;15.49;71.31;100789.75;5066984;28;20993;-76
2023/07/03 04:33:07;;;;;;;24.95;5.07;;;;;;;15.51;70.98;100791.41;5062060;28;20580;-77
2023/07/03 04:35:36;;;;;;;19.27;4.90;;;;;;;15.56;71.34;100788.50;5050985;28;20040;-77
2023/07/03 04:38:04;;;;;;;26.88;5.10;;;;;;;15.60;71.02;100791.84;5060391;28;20049;-77
2023/07/03 04:40:31;;;;;;;22.35;5.50;;;;;;;15.71;71.17;100799.25;5056996;28;20033;-72
2023/07/03 04:42:59;;;;;;;24.48;4.88;;;;;;;15.83;71.02;100790.63;5057326;28;20492;-73
2023/07/03 04:45:27;;;;;;;25.08;5.40;;;;;;;15.94;70.56;100790.09;5059104;28;20449;-74
2023/07/03 04:47:54;;;;;;;24.05;4.95;;;;;;;16.04;70.49;100796.63;5055120;28;20041;-73
2023/07/03 04:50:24;;;;;;;24.38;5.60;;;;;;;16.08;70.23;100797.31;5056953;28;20509;-72
2023/07/03 04:52:52;;;;;;;26.25;5.60;;;;;;;16.04;70.43;100791.31;5057147;28;20571;-73
2023/07/03 04:55:22;;;;;;;24.05;5.15;;;;;;;16.01;70.37;100796.81;5058412;28;20049;-73
2023/07/03 04:57:49;;;;;;;27.10;5.22;;;;;;;16.04;70.61;100793.97;5066904;28;20086;-74
2023/07/03 05:00:19;;;;;;;18.55;4.90;;;;;;;16.11;70.44;100805.13;5065995;28;20103;-74
2023/07/03 05:02:48;;;;;;;19.88;4.50;;;;;;;16.28;70.02;100801.56;5065647;28;20041;-74
2023/07/03 05:05:18;;;;;;;17.92;4.82;;;;;;;16.44;69.84;100813.06;5073923;28;20351;-75
2023/07/03 05:07:46;;;;;;;21.45;4.13;;;;;;;16.41;69.52;100810.59;5073143;28;20041;-74
2023/07/03 05:10:16;;;;;;;19.02;4.28;;;;;;;16.33;69.56;100804.81;5075139;28;20532;-75
2023/07/03 05:12:47;;;;;;;22.17;4.80;;;;;;;16.24;69.59;100815.94;5060727;28;20049;-75
2023/07/03 05:15:16;;;;;;;19.23;4.68;;;;;;;16.25;69.85;100809.69;5062930;28;20107;-75
2023/07/03 05:17:49;;;;;;;22.92;5.15;;;;;;;16.26;69.94;100817.59;5066176;28;20457;-75
2023/07/03 05:20:18;;;;;;;24.70;4.90;;;;;;;16.27;70.07;100827.31;5049220;28;20032;-74
2023/07/03 05:22:46;;;;;;;20.90;5.20;;;;;;;16.23;70.26;100828.41;5062465;28;20049;-75
2023/07/03 05:25:16;;;;;;;18.05;5.13;;;;;;;16.20;70.46;100822.41;5063035;28;20224;-75
2023/07/03 05:27:44;;;;;;;22.38;5.18;;;;;;;16.21;70.29;100830.28;5061067;28;20421;-77
2023/07/03 05:30:12;;;;;;;22.67;5.25;;;;;;;16.20;70.67;100833.03;5062140;28;20135;-75
2023/07/03 05:32:39;;;;;;;19.08;5.00;;;;;;;16.17;70.67;100838.50;5053565;28;20566;-74
2023/07/03 05:35:08;;;;;;;23.33;5.45;;;;;;;16.20;70.61;100836.53;5064792;28;20507;-74
2023/07/03 05:37:38;;;;;;;20.08;4.90;;;;;;;16.26;70.77;100844.22;5049868;28;20037;-74
2023/07/03 05:40:07;;;;;;;23.65;4.95;;;;;;;16.25;70.64;100853.13;5057179;28;20050;-73
2023/07/03 05:42:36;;;;;;;22.90;5.13;;;;;;;16.26;70.80;100846.88;5060275;28;20046;-73
2023/07/03 05:45:05;;;;;;;22.23;5.18;;;;;;;16.29;70.51;100851.16;5056505;28;20118;-74
2023/07/03 05:47:34;;;;;;;20.02;5.30;;;;;;;16.30;70.45;100852.88;5055007;28;20136;-75
2023/07/03 05:50:02;;;;;;;19.17;4.47;;;;;;;16.35;70.43;100848.16;5050084;28;20056;-75
2023/07/03 05:52:29;;;;;;;22.05;5.03;;;;;;;16.38;70.48;100852.47;5050400;28;20547;-74
2023/07/03 05:54:56;;;;;;;16.63;4.72;;;;;;;16.44;70.71;100844.97;5063669;28;20167;-74
2023/07/03 05:57:24;;;;;;;21.92;4.80;;;;;;;16.54;70.15;100847.13;5061796;28;20568;-75
2023/07/03 05:59:51;;;;;;;21.33;4.88;;;;;;;16.67;69.57;100844.66;5068957;28;20067;-75
2023/07/03 06:02:19;;;;;;;21.35;5.10;;;;;;;17.08;68.86;100847.66;5074443;28;20051;-76
2023/07/03 06:04:46;;;;;;;19.95;4.75;;;;;;;17.29;68.55;100843.84;5049509;28;20129;-76
2023/07/03 06:07:13;;;;;;;19.25;4.72;;;;;;;18.26;66.21;100845.16;5064947;28;20061;-74
2023/07/03 06:09:42;;;;;;;16.35;4.50;;;;;;;18.39;65.34;100848.78;5049781;28;20822;-73
2023/07/03 06:12:09;;;;;;;27.33;5.63;;;;;;;18.20;64.33;100843.72;5066624;28;20049;-71
2023/07/03 06:14:36;;;;;;;25.65;5.95;;;;;;;17.97;64.93;100853.16;5078317;28;20155;-74
2023/07/03 06:17:04;;;;;;;26.23;5.32;;;;;;;17.83;65.40;100862.81;5066897;28;20127;-75
2023/07/03 06:19:31;;;;;;;25.55;5.70;;;;;;;17.69;65.57;100861.00;5062625;28;20041;-75
2023/07/03 06:21:58;;;;;;;27.33;5.47;;;;;;;17.52;66.39;100859.31;5065266;28;20122;-75
2023/07/03 06:24:25;;;;;;;29.52;5.63;;;;;;;17.38;67.07;100867.28;5073785;28;20071;-75
2023/07/03 06:26:52;;;;;;;18.80;5.03;;;;;;;17.31;67.46;100863.25;5076105;28;20114;-75
2023/07/03 06:29:20;;;;;;;29.55;5.60;;;;;;;17.27;67.26;100857.25;5069923;28;20049;-75
2023/07/03 06:31:47;;;;;;;25.75;5.53;;;;;;;17.19;67.64;100859.50;5068571;28;20048;-75
2023/07/03 06:34:14;;;;;;;21.90;5.60;;;;;;;17.11;67.63;100865.25;5054349;28;20118;-76
2023/07/03 06:36:42;;;;;;;20.35;5.18;;;;;;;17.08;67.63;100860.13;5071932;28;20048;-75
2023/07/03 06:39:10;;;;;;;19.80;4.78;;;;;;;17.07;68.18;100869.06;5085673;28;20047;-75
2023/07/03 06:41:37;;;;;;;32.53;5.63;;;;;;;17.07;68.21;100864.59;5073897;28;20755;-76
2023/07/03 06:44:06;;;;;;;22.33;5.68;;;;;;;17.10;68.27;100868.03;5073336;28;20541;-74
2023/07/03 06:46:33;;;;;;;25.92;5.30;;;;;;;17.08;68.51;100857.47;5075899;28;20310;-75
2023/07/03 06:49:01;;;;;;;27.70;5.45;;;;;;;17.05;68.46;100860.31;5080693;28;20049;-74
2023/07/03 06:51:28;;;;;;;26.83;5.20;;;;;;;17.08;68.40;100865.47;5066910;28;20069;-74
2023/07/03 06:53:56;;;;;;;22.30;5.22;;;;;;;17.06;68.31;100868.19;5070543;28;20045;-74
2023/07/03 06:56:24;;;;;;;18.65;4.80;;;;;;;17.07;68.44;100871.72;5080272;28;20483;-74
2023/07/03 06:58:52;;;;;;;23.13;5.47;;;;;;;17.05;68.83;100861.16;5056647;28;20048;-74
2023/07/03 07:01:23;;;;;;;22.45;4.60;;;;;;;17.06;68.55;100876.19;5064696;28;20044;-74
2023/07/03 07:03:51;;;;;;;18.75;4.80;;;;;;;17.04;68.11;100866.56;5085257;28;20044;-74
2023/07/03 07:06:26;;;;;;;17.02;4.50;;;;;;;16.98;68.00;100866.94;5071677;28;20068;-74
2023/07/03 07:08:54;;;;;;;22.17;4.88;;;;;;;17.01;68.14;100867.63;5079077;28;20044;-74
2023/07/03 07:11:29;;;;;;;18.55;4.57;;;;;;;17.04;67.97;100864.75;5068896;28;20037;-74
2023/07/03 07:13:59;;;;;;;30.60;5.22;;;;;;;17.12;67.90;100874.97;5085020;28;20129;-74
2023/07/03 07:16:34;;;;;;;22.27;4.50;;;;;;;17.20;67.95;100867.41;5073140;28;20558;-74
2023/07/03 07:19:05;;;;;;;29.88;5.70;;;;;;;17.32;67.36;100870.31;5078400;28;20099;-75
2023/07/03 07:21:37;;;;;;;22.42;4.60;;;;;;;17.36;67.14;100877.19;5068170;28;21014;-75
2023/07/03 07:24:16;;;;;;;30.10;5.72;;;;;;;17.38;67.13;100877.97;5066139;28;20136;-74
2023/07/03 07:26:45;;;;;;;21.75;5.90;;;;;;;17.39;67.34;100877.84;5075156;28;20571;-75
2023/07/03 07:29:12;;;;;;;18.48;4.55;;;;;;;17.40;67.28;100881.38;5076034;28;20440;-74
2023/07/03 07:31:40;;;;;;;24.08;5.03;;;;;;;17.33;67.92;100883.56;5068843;28;20124;-74
2023/07/03 07:34:10;;;;;;;28.95;5.70;;;;;;;17.31;67.44;100881.91;5066230;28;20063;-75
2023/07/03 07:36:39;;;;;;;24.27;5.20;;;;;;;17.28;67.70;100880.28;5071212;28;20127;-74
2023/07/03 07:39:08;;;;;;;22.30;5.13;;;;;;;17.31;67.54;100885.44;5075873;28;20523;-74
2023/07/03 07:41:35;;;;;;;22.42;5.30;;;;;;;17.34;67.90;100884.41;5067164;28;20067;-75
2023/07/03 07:44:05;;;;;;;39.15;6.50;;;;;;;17.39;68.03;100882.34;5068006;28;20037;-74
2023/07/03 07:46:33;;;;;;;21.60;5.10;;;;;;;17.45;67.86;100878.47;5066885;28;20528;-74
2023/07/03 07:49:01;;;;;;;28.73;5.70;;;;;;;17.50;67.55;100884.38;5064483;28;20119;-74
2023/07/03 07:51:29;;;;;;;20.20;4.75;;;;;;;17.48;67.17;100884.47;5068576;28;20099;-74
2023/07/03 07:53:57;;;;;;;17.15;4.65;;;;;;;17.46;67.17;100885.47;5066660;28;20049;-75
2023/07/03 07:56:26;;;;;;;16.85;4.70;;;;;;;17.45;67.25;100889.13;5064465;28;20497;-74
2023/07/03 07:58:54;;;;;;;18.27;4.43;;;;;;;17.47;67.55;100895.19;5064320;28;20084;-74
2023/07/03 08:01:21;;;;;;;19.90;4.97;;;;;;;17.48;67.54;100894.25;5050945;28;20084;-75
2023/07/03 08:03:48;;;;;;;17.42;4.40;;;;;;;17.47;67.55;100895.19;5061406;28;20053;-75
2023/07/03 08:06:16;;;;;;;20.20;4.65;;;;;;;17.49;67.61;100895.97;5066896;28;20723;-75
2023/07/03 08:08:43;;;;;;;24.08;5.00;;;;;;;17.50;67.69;100895.88;5064371;28;20095;-75
2023/07/03 08:11:11;;;;;;;19.50;4.65;;;;;;;17.62;66.89;100896.97;5068462;28;20045;-74
2023/07/03 08:13:40;;;;;;;18.58;4.88;;;;;;;17.72;65.96;100902.59;5059561;28;20095;-75
2023/07/03 08:16:10;;;;;;;18.27;4.68;;;;;;;17.84;65.73;100907.19;5063621;28;20041;-75
2023/07/03 08:18:38;;;;;;;17.08;4.80;;;;;;;18.04;64.96;100905.16;5067397;28;20525;-75
2023/07/03 08:21:05;;;;;;;16.38;4.47;;;;;;;18.22;63.66;100908.53;5067288;28;20045;-75
2023/07/03 08:23:32;;;;;;;26.35;5.70;;;;;;;18.33;62.99;100909.69;5066731;28;20517;-75
2023/07/03 08:26:01;;;;;;;20.35;5.40;;;;;;;18.39;62.31;100902.16;5066998;28;20574;-74
2023/07/03 08:28:29;;;;;;;30.30;5.50;;;;;;;18.54;61.93;100902.13;5066364;28;20098;-75
2023/07/03 08:31:00;;;;;;;24.77;4.85;;;;;;;18.67;61.80;100903.09;5067085;28;20045;-76
2023/07/03 08:33:27;;;;;;;21.83;5.03;;;;;;;18.82;61.87;100903.06;5066915;28;20095;-75
2023/07/03 08:35:54;;;;;;;22.88;5.15;;;;;;;18.90;60.77;100904.28;5067286;28;20180;-74
2023/07/03 08:38:24;;;;;;;17.75;4.22;;;;;;;18.86;60.86;100902.78;5065377;28;20123;-75
2023/07/03 08:41:00;;;;;;;28.05;5.45;;;;;;;18.75;60.42;100902.59;5063865;28;20525;-74
2023/07/03 08:43:38;;;;;;;14.10;4.30;;;;;;;18.57;60.56;100901.94;5064579;28;20037;-75
2023/07/03 08:46:12;;;;;;;19.00;3.88;;;;;;;18.39;60.40;100906.63;5046461;28;20458;-75
2023/07/03 08:48:43;;;;;;;18.20;4.22;;;;;;;18.27;60.94;100917.09;5046608;28;20718;-76
2023/07/03 08:51:18;;;;;;;13.05;3.85;;;;;;;18.16;61.53;100914.25;5063589;28;20079;-76
2023/07/03 08:53:54;;;;;;;27.77;5.50;;;;;;;18.07;61.12;100913.00;5065863;28;20091;-75
2023/07/03 08:56:26;;;;;;;24.30;4.40;;;;;;;18.01;60.51;100913.34;5067314;28;20045;-76
2023/07/03 08:58:56;;;;;;;23.58;4.32;;;;;;;17.94;60.23;100914.66;5064398;28;20080;-75
2023/07/03 09:01:46;;;;;;;55.15;6.82;;;;;;;17.91;60.90;100922.81;5055351;28;20053;-75
2023/07/03 09:04:31;;;;;;;22.02;4.65;;;;;;;17.97;61.16;100931.34;5053153;28;20041;-76
2023/07/03 09:07:05;;;;;;;20.02;4.65;;;;;;;18.09;61.17;100927.09;5065924;28;20048;-76
2023/07/03 09:09:59;;;;;;;18.92;4.05;;;;;;;18.08;60.84;100920.06;5064805;28;20567;-76
2023/07/03 09:12:54;;;;;;;33.65;5.55;;;;;;;18.11;61.14;100924.34;5066391;28;20406;-76
2023/07/03 09:15:32;;;;;;;24.55;3.97;;;;;;;18.13;59.58;100917.94;5065503;28;20639;-76
2023/07/03 09:18:06;;;;;;;20.35;3.70;;;;;;;18.16;59.10;100932.94;5068105;28;20508;-77
2023/07/03 09:20:34;;;;;;;27.90;4.25;;;;;;;18.19;58.58;100926.53;5071194;28;20520;-77
2023/07/03 09:23:13;;;;;;;12.93;3.03;;;;;;;18.24;57.36;100925.31;5069342;28;20511;-77
2023/07/03 09:25:51;;;;;;;20.38;3.63;;;;;;;18.34;56.67;100925.59;5086673;28;20048;-76
2023/07/03 09:28:21;;;;;;;13.73;3.15;;;;;;;18.47;55.96;100929.22;5084713;28;20062;-76
2023/07/03 09:30:48;;;;;;;21.20;3.00;;;;;;;18.69;54.63;100927.00;5065878;28;20048;-75
2023/07/03 09:33:16;;;;;;;37.28;4.53;;;;;;;18.90;53.27;100930.97;5071814;28;20191;-76
2023/07/03 09:35:43;;;;;;;21.08;3.30;;;;;;;19.13;53.06;100931.34;5086946;28;20041;-77
2023/07/03 09:38:34;;;;;;;21.23;3.35;;;;;;;19.50;51.84;100931.59;5085726;28;20487;-76
2023/07/03 09:41:04;;;;;;;18.98;3.42;;;;;;;19.77;50.88;100929.84;5068406;28;20095;-76
2023/07/03 09:43:31;;;;;;;16.73;3.05;;;;;;;20.16;49.20;100925.41;5070155;28;20047;-77
2023/07/03 09:46:12;;;;;;;13.85;3.35;;;;;;;20.43;49.88;100930.66;5086192;28;20090;-75
2023/07/03 09:48:40;;;;;;;14.73;3.15;;;;;;;20.66;48.85;100928.16;5086376;28;20064;-76
2023/07/03 09:51:25;;;;;;;18.63;3.08;;;;;;;20.81;45.79;100928.06;5086393;28;20053;-77
2023/07/03 09:53:59;;;;;;;19.30;3.10;;;;;;;20.85;44.77;100917.03;5060631;28;20049;-76
2023/07/03 09:56:29;;;;;;;17.83;2.40;;;;;;;20.88;43.28;100919.47;5066041;28;20052;-76
2023/07/03 09:59:04;;;;;;;16.40;2.97;;;;;;;20.91;43.81;100927.28;5067093;28;20130;-75
2023/07/03 10:01:36;;;;;;;35.38;3.65;;;;;;;20.95;44.18;100922.56;5070214;28;20045;-75
2023/07/03 10:04:17;;;;;;;15.30;2.40;;;;;;;21.00;43.50;100919.53;5067506;28;20528;-75
2023/07/03 10:07:05;;;;;;;14.45;2.75;;;;;;;20.99;43.67;100924.06;5070487;28;20433;-75
2023/07/03 10:09:38;;;;;;;21.60;2.80;;;;;;;20.98;42.85;100922.34;5068620;28;20049;-76
2023/07/03 10:12:16;;;;;;;27.08;3.40;;;;;;;20.90;43.54;100914.00;5068718;28;20091;-76
2023/07/03 10:14:54;;;;;;;20.25;2.83;;;;;;;20.89;43.39;100918.50;5049689;28;20477;-76
2023/07/03 10:17:37;;;;;;;18.58;3.70;;;;;;;20.90;43.76;100922.03;5048822;28;20132;-76
2023/07/03 10:20:23;;;;;;;12.35;2.88;;;;;;;20.92;44.69;100930.81;5049110;28;20052;-76
2023/07/03 10:22:58;;;;;;;17.17;2.88;;;;;;;20.89;45.21;100937.25;5060895;28;20076;-76
2023/07/03 10:25:33;;;;;;;9.38;2.95;;;;;;;20.79;45.64;100938.88;5067654;28;20103;-76
2023/07/03 10:28:09;;;;;;;17.35;3.75;;;;;;;20.59;45.86;100949.16;5069093;28;20116;-76
2023/07/03 10:30:42;;;;;;;12.27;3.42;;;;;;;20.35;47.01;100948.25;5069342;28;20103;-76
2023/07/03 10:33:21;;;;;;;18.33;3.78;;;;;;;20.10;47.92;100961.47;5067622;28;20531;-76
2023/07/03 10:35:50;;;;;;;12.80;2.85;;;;;;;19.90;48.66;100962.84;5068958;28;20047;-76
2023/07/03 10:38:43;;;;;;;14.90;3.10;;;;;;;19.73;49.39;100957.75;5069031;28;20041;-75
2023/07/03 10:41:19;;;;;;;11.02;3.03;;;;;;;19.64;50.19;100961.91;5066816;28;20572;-75
2023/07/03 10:43:56;;;;;;;16.70;3.80;;;;;;;19.68;50.24;100953.56;5063129;28;20142;-76
2023/07/03 10:46:35;;;;;;;12.15;3.47;;;;;;;19.90;50.36;100954.84;5067925;28;20044;-76
2023/07/03 10:49:10;;;;;;;27.45;5.40;;;;;;;20.05;49.63;100952.06;5068576;28;20041;-76
2023/07/03 10:52:01;;;;;;;17.77;3.97;;;;;;;20.23;49.90;100950.81;5067148;28;20098;-76
2023/07/03 10:54:41;;;;;;;12.18;4.10;;;;;;;20.33;49.36;100938.50;5067958;28;20073;-76
2023/07/03 10:57:17;;;;;;;22.63;3.75;;;;;;;20.45;49.10;100926.06;5068096;28;20088;-76
2023/07/03 10:59:54;;;;;;;16.98;4.00;;;;;;;20.62;49.23;100929.34;5069108;28;20555;-75
2023/07/03 11:02:38;;;;;;;26.02;4.38;;;;;;;20.92;49.04;100922.75;5067172;28;20465;-76
2023/07/03 11:05:51;;;;;;;14.15;3.70;;;;;;;21.12;47.97;100925.81;5048799;28;20136;-75
2023/07/03 11:08:47;;;;;;;15.70;4.22;;;;;;;21.18;46.71;100926.22;5039814;28;20575;-76
2023/07/03 11:11:40;;;;;;;11.18;3.60;;;;;;;21.14;46.78;100919.38;5059740;28;20909;-75
2023/07/03 11:14:22;;;;;;;23.50;4.85;;;;;;;21.31;47.66;100928.88;5069069;28;20071;-77
2023/07/03 11:17:21;;;;;;;15.55;4.05;;;;;;;21.73;47.03;100920.41;5066628;28;20587;-74
2023/07/03 11:20:22;;;;;;;14.85;4.05;;;;;;;22.08;44.34;100913.28;5052198;28;20045;-74
2023/07/03 11:23:04;;;;;;;15.52;4.20;;;;;;;22.21;44.38;100914.03;5062012;28;20088;-77
2023/07/03 11:25:58;;;;;;;15.75;3.70;;;;;;;22.21;43.51;100916.72;5073567;28;20041;-75
2023/07/03 11:28:47;;;;;;;32.03;4.60;;;;;;;22.09;44.06;100923.88;5051465;28;20426;-76
2023/07/03 11:31:15;;;;;;;18.70;3.97;;;;;;;21.93;43.98;100931.41;5067806;28;20498;-74
2023/07/03 11:33:44;;;;;;;12.35;3.80;;;;;;;21.74;44.63;100921.22;5066949;28;20041;-73
2023/07/03 11:36:34;;;;;;;15.40;3.83;;;;;;;21.83;44.02;100928.56;5066302;28;20139;-75